createdAt,value
2023-01-17T00:02:06.832Z,1.23
2023-01-17T00:04:52.572Z,1.40
2023-01-17T00:07:36.838Z,1.30
2023-01-17T00:10:08.718Z,1.37
2023-01-17T00:12:37.070Z,1.47
2023-01-17T00:15:07.415Z,1.10
2023-01-17T00:17:35.433Z,1.10
2023-01-17T00:20:21.453Z,1.37
2023-01-17T00:23:06.930Z,1.27
2023-01-17T00:25:56.896Z,1.30
2023-01-17T00:28:23.820Z,1.03
2023-01-17T00:30:50.771Z,1.10
2023-01-17T00:33:17.759Z,1.03
2023-01-17T00:35:44.718Z,1.10
2023-01-17T00:38:13.051Z,1.10
2023-01-17T00:40:42.670Z,1.13
2023-01-17T00:43:29.868Z,1.00
2023-01-17T00:46:15.321Z,0.80
2023-01-17T00:49:01.768Z,0.80
2023-01-17T00:51:48.783Z,1.20
2023-01-17T00:54:34.871Z,0.90
2023-01-17T00:57:22.901Z,0.97
2023-01-17T01:00:08.737Z,1.00
2023-01-17T01:02:55.403Z,1.00
2023-01-17T01:05:41.484Z,0.90
2023-01-17T01:08:39.985Z,0.80
2023-01-17T01:11:27.115Z,0.87
2023-01-17T01:14:14.415Z,0.90
2023-01-17T01:17:00.304Z,1.00
2023-01-17T01:19:45.763Z,1.07
2023-01-17T01:22:31.416Z,1.00
2023-01-17T01:25:17.259Z,1.20
2023-01-17T01:28:03.155Z,1.30
2023-01-17T01:30:50.486Z,1.27
2023-01-17T01:33:20.775Z,1.30
2023-01-17T01:35:50.505Z,1.30
2023-01-17T01:38:18.967Z,1.33
2023-01-17T01:40:49.358Z,1.20
2023-01-17T01:43:19.815Z,3.00
2023-01-17T01:45:53.868Z,3.23
2023-01-17T01:48:34.750Z,3.10
2023-01-17T01:51:06.433Z,3.27
2023-01-17T01:53:38.278Z,2.73
2023-01-17T01:56:10.685Z,2.73
2023-01-17T01:58:40.342Z,2.77
2023-01-17T02:01:10.275Z,2.20
2023-01-17T02:03:40.760Z,2.07
2023-01-17T02:06:17.758Z,2.13
2023-01-17T02:08:46.293Z,2.20
2023-01-17T02:11:14.385Z,1.97
2023-01-17T02:13:43.924Z,1.60
2023-01-17T02:16:21.163Z,1.70
2023-01-17T02:19:00.671Z,1.20
2023-01-17T02:21:33.258Z,1.40
2023-01-17T02:24:55.376Z,1.30
2023-01-17T02:27:27.012Z,1.07
2023-01-17T02:30:28.585Z,1.13
2023-01-17T02:33:17.864Z,0.97
2023-01-17T02:35:54.447Z,1.20
2023-01-17T02:38:33.120Z,1.10
2023-01-17T02:41:05.531Z,1.13
2023-01-17T02:43:35.159Z,1.17
2023-01-17T02:46:04.780Z,1.30
2023-01-17T02:48:34.559Z,1.50
2023-01-17T02:51:19.914Z,1.50
2023-01-17T02:54:00.177Z,1.30
2023-01-17T02:56:44.606Z,1.20
2023-01-17T02:59:21.751Z,1.10
2023-01-17T03:02:04.385Z,1.47
2023-01-17T03:04:39.491Z,1.13
2023-01-17T03:07:12.554Z,1.40
2023-01-17T03:09:43.739Z,1.40
2023-01-17T03:12:11.713Z,1.37
2023-01-17T03:14:39.888Z,1.20
2023-01-17T03:17:09.408Z,1.50
2023-01-17T03:19:37.369Z,1.40
2023-01-17T03:22:05.389Z,1.70
2023-01-17T03:24:33.303Z,1.80
2023-01-17T03:27:01.201Z,1.80
2023-01-17T03:29:29.167Z,1.77
2023-01-17T03:31:57.418Z,1.40
2023-01-17T03:34:26.770Z,1.30
2023-01-17T03:36:54.907Z,1.40
2023-01-17T03:39:22.989Z,1.63
2023-01-17T03:41:51.405Z,1.30
2023-01-17T03:44:19.491Z,1.40
2023-01-17T03:46:47.508Z,1.20
2023-01-17T03:49:16.732Z,1.50
2023-01-17T03:51:46.091Z,1.30
2023-01-17T03:54:14.060Z,1.57
2023-01-17T03:56:41.985Z,1.13
2023-01-17T03:59:12.238Z,1.27
2023-01-17T04:01:41.264Z,1.27
2023-01-17T04:04:09.620Z,1.27
2023-01-17T04:06:37.551Z,1.47
2023-01-17T04:09:06.886Z,1.53
2023-01-17T04:11:35.043Z,1.57
2023-01-17T04:14:02.992Z,1.50
2023-01-17T04:16:32.546Z,1.63
2023-01-17T04:19:00.549Z,1.70
2023-01-17T04:21:28.576Z,1.83
2023-01-17T04:23:56.618Z,2.10
2023-01-17T04:26:26.141Z,3.20
2023-01-17T04:28:54.099Z,3.50
2023-01-17T04:31:22.132Z,3.97
2023-01-17T04:33:50.078Z,4.53
2023-01-17T04:36:18.100Z,4.97
2023-01-17T04:38:46.103Z,5.10
2023-01-17T04:41:14.101Z,5.37
2023-01-17T04:43:43.416Z,5.70
2023-01-17T04:46:11.437Z,6.43
2023-01-17T04:48:39.381Z,6.87
2023-01-17T04:51:07.560Z,7.10
2023-01-17T04:53:35.513Z,7.70
2023-01-17T04:56:03.679Z,7.70
2023-01-17T04:58:33.361Z,8.03
2023-01-17T05:01:06.940Z,7.90
2023-01-17T05:03:35.674Z,7.50
2023-01-17T05:06:04.206Z,7.93
2023-01-17T05:08:32.194Z,7.77
2023-01-17T05:11:00.120Z,7.90
2023-01-17T05:13:28.066Z,8.00
2023-01-17T05:15:57.667Z,7.53
2023-01-17T05:18:27.051Z,7.60
2023-01-17T05:20:55.039Z,7.30
2023-01-17T05:23:22.970Z,6.50
2023-01-17T05:25:50.973Z,6.80
2023-01-17T05:28:19.012Z,6.10
2023-01-17T05:30:46.970Z,5.97
2023-01-17T05:33:14.880Z,7.10
2023-01-17T05:35:44.263Z,6.10
2023-01-17T05:38:12.235Z,5.80
2023-01-17T05:40:40.256Z,5.77
2023-01-17T05:43:08.283Z,5.63
2023-01-17T05:45:36.680Z,6.10
2023-01-17T05:48:05.466Z,5.50
2023-01-17T05:50:34.845Z,6.00
2023-01-17T05:53:06.098Z,6.40
2023-01-17T05:55:34.400Z,6.23
2023-01-17T05:58:03.085Z,5.60
2023-01-17T06:00:31.678Z,5.87
2023-01-17T06:03:01.171Z,6.20
2023-01-17T06:05:30.198Z,5.63
2023-01-17T06:07:58.635Z,6.33
2023-01-17T06:10:29.482Z,6.87
2023-01-17T06:13:06.335Z,6.97
2023-01-17T06:15:36.155Z,6.90
2023-01-17T06:18:08.295Z,6.57
2023-01-17T06:20:36.625Z,7.77
2023-01-17T06:23:06.580Z,7.77
2023-01-17T06:25:39.545Z,7.20
2023-01-17T06:28:07.996Z,7.27
2023-01-17T06:30:36.640Z,7.87
2023-01-17T06:33:05.536Z,6.90
2023-01-17T06:35:33.910Z,7.23
2023-01-17T06:38:02.048Z,8.10
2023-01-17T06:40:30.438Z,8.20
2023-01-17T06:43:02.695Z,8.60
2023-01-17T06:45:31.253Z,8.73
2023-01-17T06:48:24.576Z,8.23
2023-01-17T06:54:10.955Z,8.13
2023-01-17T06:56:39.158Z,8.10
2023-01-17T06:59:08.719Z,9.53
2023-01-17T07:01:36.731Z,8.77
2023-01-17T07:04:05.587Z,8.83
2023-01-17T07:06:33.533Z,9.50
2023-01-17T07:09:07.593Z,9.57
2023-01-17T07:11:39.068Z,8.53
2023-01-17T07:14:13.391Z,9.33
2023-01-17T07:16:43.596Z,8.33
2023-01-17T07:19:11.526Z,8.77
2023-01-17T07:21:40.391Z,9.60
2023-01-17T07:24:08.957Z,9.73
2023-01-17T07:26:40.109Z,9.77
2023-01-17T07:29:09.549Z,8.97
2023-01-17T07:31:38.727Z,10.37
2023-01-17T07:34:06.785Z,9.17
2023-01-17T07:36:34.853Z,9.97
2023-01-17T07:39:04.849Z,9.03
2023-01-17T07:41:41.132Z,10.00
2023-01-17T07:44:11.782Z,10.67
2023-01-17T07:46:39.771Z,9.93
2023-01-17T07:49:07.816Z,9.67
2023-01-17T07:51:35.762Z,11.30
2023-01-17T07:54:04.124Z,10.20
2023-01-17T07:56:32.084Z,10.23
2023-01-17T07:59:01.800Z,10.77
2023-01-17T08:01:31.290Z,9.73
2023-01-17T08:03:59.307Z,10.87
2023-01-17T08:06:29.172Z,10.43
2023-01-17T08:08:59.369Z,9.63
2023-01-17T08:11:27.602Z,10.23
2023-01-17T08:13:59.260Z,11.60
2023-01-17T08:16:29.739Z,10.33
2023-01-17T08:18:59.226Z,11.77
2023-01-17T08:21:27.204Z,10.37
2023-01-17T08:23:55.278Z,11.13
2023-01-17T08:26:23.824Z,10.60
2023-01-17T08:28:56.851Z,10.40
2023-01-17T08:31:25.226Z,10.50
2023-01-17T08:33:53.322Z,11.00
2023-01-17T08:36:22.610Z,9.83
2023-01-17T08:38:52.757Z,9.80
2023-01-17T08:41:21.015Z,10.77
2023-01-17T08:43:49.626Z,10.10
2023-01-17T08:46:44.069Z,11.07
2023-01-17T08:49:12.863Z,10.53
2023-01-17T08:51:42.342Z,10.43
2023-01-17T08:54:12.901Z,9.87
2023-01-17T08:56:42.695Z,11.73
2023-01-17T08:59:11.916Z,10.03
2023-01-17T09:01:41.746Z,10.10
2023-01-17T09:04:10.948Z,10.33
2023-01-17T09:06:40.165Z,10.70
2023-01-17T09:09:11.082Z,10.57
2023-01-17T09:11:39.159Z,11.73
2023-01-17T09:14:07.164Z,10.77
2023-01-17T09:16:35.269Z,9.90
2023-01-17T09:19:03.298Z,10.33
2023-01-17T09:21:31.287Z,9.13
2023-01-17T09:23:59.239Z,10.10
2023-01-17T09:26:30.891Z,9.70
2023-01-17T09:28:59.527Z,9.47
2023-01-17T09:31:28.255Z,10.37
2023-01-17T09:33:58.143Z,9.10
2023-01-17T09:36:28.886Z,8.90
2023-01-17T09:38:58.200Z,9.80
2023-01-17T09:41:30.812Z,9.43
2023-01-17T09:44:05.660Z,9.17
2023-01-17T09:46:39.977Z,9.17
2023-01-17T09:49:09.976Z,9.30
2023-01-17T09:51:38.317Z,9.27
2023-01-17T09:54:07.010Z,9.03
2023-01-17T09:56:44.051Z,10.20
2023-01-17T09:59:33.144Z,9.90
2023-01-17T10:02:19.641Z,9.60
2023-01-17T10:05:04.866Z,9.70
2023-01-17T10:07:44.356Z,10.47
2023-01-17T10:10:27.857Z,9.00
2023-01-17T10:13:02.987Z,8.97
2023-01-17T10:16:01.725Z,9.00
2023-01-17T10:19:04.455Z,8.40
2023-01-17T10:21:46.032Z,8.43
2023-01-17T10:24:46.863Z,8.43
2023-01-17T10:27:21.203Z,7.23
2023-01-17T10:29:51.836Z,8.23
2023-01-17T10:32:22.734Z,7.97
2023-01-17T10:34:52.718Z,7.83
2023-01-17T10:37:25.322Z,7.90
2023-01-17T10:39:57.046Z,7.37
2023-01-17T10:42:30.027Z,7.90
2023-01-17T10:45:06.536Z,7.50
2023-01-17T10:47:39.446Z,7.73
2023-01-17T10:50:13.137Z,8.13
2023-01-17T10:52:47.067Z,7.50
2023-01-17T10:55:28.721Z,7.47
2023-01-17T10:57:58.888Z,7.27
2023-01-17T11:00:43.799Z,7.63
2023-01-17T11:03:13.295Z,7.60
2023-01-17T11:05:43.087Z,7.13
2023-01-17T11:08:13.408Z,7.43
2023-01-17T11:10:44.739Z,6.17
2023-01-17T11:13:29.076Z,6.80
2023-01-17T11:16:00.885Z,6.80
2023-01-17T11:18:30.932Z,6.53
2023-01-17T11:21:12.182Z,6.30
2023-01-17T11:23:42.512Z,7.00
2023-01-17T11:26:13.745Z,6.60
2023-01-17T11:28:42.512Z,6.50
2023-01-17T11:31:27.417Z,6.50
2023-01-17T11:34:17.118Z,6.13
2023-01-17T11:36:45.750Z,6.40
2023-01-17T11:39:27.384Z,6.10
2023-01-17T11:41:55.875Z,5.03
2023-01-17T11:44:27.290Z,5.47
2023-01-17T11:47:19.181Z,5.70
2023-01-17T11:49:48.727Z,6.33
2023-01-17T11:52:23.233Z,6.50
2023-01-17T11:54:53.353Z,5.10
2023-01-17T11:57:24.796Z,5.53
2023-01-17T12:00:04.605Z,5.10
2023-01-17T12:03:13.620Z,5.40
2023-01-17T12:05:51.468Z,4.70
2023-01-17T12:08:31.378Z,4.57
2023-01-17T12:11:05.564Z,3.80
2023-01-17T12:14:03.117Z,4.40
2023-01-17T12:16:58.772Z,4.10
2023-01-17T12:19:41.267Z,4.20
2023-01-17T12:22:25.130Z,4.23
2023-01-17T12:25:23.796Z,3.40
2023-01-17T12:28:08.619Z,2.67
2023-01-17T12:30:50.701Z,3.00
2023-01-17T12:33:26.213Z,3.27
2023-01-17T12:35:59.773Z,3.63
2023-01-17T12:38:34.005Z,3.37
2023-01-17T12:41:06.978Z,2.10
2023-01-17T12:43:38.039Z,2.30
2023-01-17T12:46:12.813Z,2.90
2023-01-17T12:48:42.105Z,3.63
2023-01-17T12:51:19.302Z,3.90
2023-01-17T12:53:53.997Z,4.33
2023-01-17T12:56:27.688Z,3.53
2023-01-17T12:59:01.751Z,2.60
2023-01-17T13:01:31.710Z,3.50
2023-01-17T13:04:09.534Z,3.80
2023-01-17T13:06:50.852Z,3.03
2023-01-17T13:09:23.957Z,3.07
2023-01-17T13:11:57.036Z,2.83
2023-01-17T13:14:25.227Z,2.40
2023-01-17T13:16:58.849Z,3.23
2023-01-17T13:19:35.757Z,2.53
2023-01-17T13:22:08.838Z,2.00
2023-01-17T13:24:46.433Z,2.37
2023-01-17T13:27:46.659Z,2.43
2023-01-17T13:30:36.419Z,2.80
2023-01-17T13:33:29.696Z,2.93
2023-01-17T13:36:10.083Z,2.77
2023-01-17T13:38:55.887Z,2.80
2023-01-17T13:41:46.744Z,2.60
2023-01-17T13:44:25.318Z,2.37
2023-01-17T13:46:58.781Z,2.67
2023-01-17T13:49:47.535Z,2.23
2023-01-17T13:52:33.180Z,2.67
2023-01-17T13:55:04.636Z,2.40
2023-01-17T13:57:43.573Z,2.27
2023-01-17T14:00:59.455Z,2.27
2023-01-17T14:04:05.026Z,2.13
2023-01-17T14:06:38.525Z,2.33
2023-01-17T14:09:20.147Z,2.40
2023-01-17T14:11:59.133Z,2.40
2023-01-17T14:14:47.598Z,2.73
2023-01-17T14:17:38.329Z,2.47
2023-01-17T14:20:43.703Z,2.43
2023-01-17T14:23:41.452Z,2.57
2023-01-17T14:26:39.252Z,2.43
2023-01-17T14:29:47.407Z,2.90
2023-01-17T14:32:17.066Z,2.77
2023-01-17T14:34:46.528Z,2.40
2023-01-17T14:37:21.192Z,2.57
2023-01-17T14:39:50.848Z,2.73
2023-01-17T14:42:21.728Z,2.80
2023-01-17T14:44:59.160Z,2.67
2023-01-17T14:47:30.997Z,2.63
2023-01-17T14:50:22.823Z,2.40
2023-01-17T14:53:08.406Z,2.80
2023-01-17T14:55:36.668Z,2.90
2023-01-17T14:58:05.090Z,2.90
2023-01-17T15:00:40.632Z,2.90
2023-01-17T15:03:12.636Z,2.67
2023-01-17T15:05:42.563Z,2.70
2023-01-17T15:08:14.116Z,2.90
2023-01-17T15:10:50.103Z,2.77
2023-01-17T15:13:24.597Z,2.80
2023-01-17T15:16:07.155Z,2.37
2023-01-17T15:18:39.315Z,2.73
2023-01-17T15:21:10.873Z,2.67
2023-01-17T15:23:41.557Z,2.57
2023-01-17T15:26:13.937Z,2.83
2023-01-17T15:28:44.696Z,2.70
2023-01-17T15:31:17.608Z,2.60
2023-01-17T15:33:47.633Z,2.57
2023-01-17T15:36:28.224Z,2.30
2023-01-17T15:39:00.075Z,2.53
2023-01-17T15:41:31.432Z,2.77
2023-01-17T15:43:59.375Z,2.73
2023-01-17T15:46:33.831Z,2.70
2023-01-17T15:49:19.336Z,3.50
2023-01-17T15:51:51.034Z,4.47
2023-01-17T15:54:34.249Z,3.37
2023-01-17T15:57:07.258Z,3.20
2023-01-17T15:59:45.760Z,3.53
2023-01-17T16:02:43.727Z,3.40
2023-01-17T16:05:41.946Z,3.13
2023-01-17T16:08:26.515Z,2.80
2023-01-17T16:10:57.981Z,2.90
2023-01-17T16:13:26.211Z,2.53
2023-01-17T16:15:54.397Z,2.37
2023-01-17T16:18:25.847Z,2.53
2023-01-17T16:20:59.848Z,2.60
2023-01-17T16:23:27.927Z,2.33
2023-01-17T16:25:56.062Z,3.90
2023-01-17T16:28:24.362Z,5.00
2023-01-17T16:30:53.902Z,2.73
2023-01-17T16:33:23.355Z,3.07
2023-01-17T16:35:55.306Z,2.93
2023-01-17T16:38:23.406Z,3.40
2023-01-17T16:40:51.403Z,3.73
2023-01-17T16:43:20.840Z,3.20
2023-01-17T16:45:52.009Z,27.67
2023-01-17T16:48:20.215Z,5.90
2023-01-17T16:50:52.910Z,3.90
2023-01-17T16:53:24.633Z,4.53
2023-01-17T16:55:56.176Z,4.17
2023-01-17T16:58:24.850Z,5.27
2023-01-17T17:00:55.167Z,11.07
2023-01-17T17:03:26.430Z,17.80
2023-01-17T17:06:00.197Z,8.00
2023-01-17T17:08:29.960Z,9.20
2023-01-17T17:11:08.833Z,10.73
2023-01-17T17:13:36.971Z,7.83
2023-01-17T17:16:11.507Z,7.83
2023-01-17T17:18:39.573Z,5.70
2023-01-17T17:21:09.278Z,5.60
2023-01-17T17:23:37.285Z,6.20
2023-01-17T17:26:05.381Z,6.10
2023-01-17T17:28:33.632Z,11.57
2023-01-17T17:31:06.874Z,9.20
2023-01-17T17:33:36.811Z,9.73
2023-01-17T17:36:07.031Z,10.20
2023-01-17T17:38:36.528Z,7.70
2023-01-17T17:41:10.008Z,9.00
2023-01-17T17:43:40.436Z,33.13
2023-01-17T17:46:09.321Z,27.13
2023-01-17T17:48:37.723Z,16.77
2023-01-17T17:51:06.415Z,14.23
2023-01-17T17:53:35.863Z,16.40
2023-01-17T17:56:05.415Z,15.10
2023-01-17T17:58:34.600Z,13.97
2023-01-17T18:01:07.385Z,14.37
2023-01-17T18:03:35.457Z,14.07
2023-01-17T18:06:05.081Z,13.03
2023-01-17T18:08:33.827Z,13.00
2023-01-17T18:11:04.890Z,11.90
2023-01-17T18:13:33.963Z,10.83
2023-01-17T18:16:05.406Z,12.90
2023-01-17T18:18:33.992Z,13.83
2023-01-17T18:21:09.918Z,16.33
2023-01-17T18:23:39.602Z,16.80
2023-01-17T18:26:16.687Z,16.40
2023-01-17T18:28:45.219Z,20.30
2023-01-17T18:31:13.718Z,20.50
2023-01-17T18:33:42.215Z,22.07
2023-01-17T18:36:11.834Z,17.80
2023-01-17T18:38:40.673Z,19.30
2023-01-17T18:41:12.844Z,19.63
2023-01-17T18:43:41.235Z,20.87
2023-01-17T18:46:10.152Z,26.40
2023-01-17T18:48:38.917Z,24.87
2023-01-17T18:51:08.650Z,22.90
2023-01-17T18:53:38.447Z,24.20
2023-01-17T18:56:11.088Z,22.73
2023-01-17T18:58:40.881Z,22.77
2023-01-17T19:01:11.310Z,21.43
2023-01-17T19:03:40.280Z,21.27
2023-01-17T19:06:10.663Z,19.37
2023-01-17T19:08:40.112Z,17.23
2023-01-17T19:11:09.868Z,18.47
2023-01-17T19:13:39.350Z,19.27
2023-01-17T19:16:10.091Z,18.33
2023-01-17T19:18:38.209Z,18.63
2023-01-17T19:21:08.115Z,17.33
2023-01-17T19:23:37.058Z,18.83
2023-01-17T19:26:06.488Z,17.60
2023-01-17T19:28:38.931Z,15.20
2023-01-17T19:31:09.313Z,15.90
2023-01-17T19:33:38.868Z,18.43
2023-01-17T19:36:10.407Z,18.93
2023-01-17T19:38:38.816Z,16.13
2023-01-17T19:41:12.128Z,17.77
2023-01-17T19:43:42.988Z,17.37
2023-01-17T19:46:12.099Z,16.57
2023-01-17T19:48:40.816Z,15.17
2023-01-17T19:51:10.489Z,15.60
2023-01-17T19:53:39.472Z,14.83
2023-01-17T19:56:09.029Z,14.60
2023-01-17T19:58:37.732Z,13.20
2023-01-17T20:01:08.835Z,14.03
2023-01-17T20:03:37.781Z,13.07
2023-01-17T20:06:06.901Z,13.10
2023-01-17T20:08:35.505Z,13.33
2023-01-17T20:11:04.875Z,14.50
2023-01-17T20:13:33.037Z,13.93
2023-01-17T20:16:03.822Z,13.40
2023-01-17T20:18:34.285Z,13.10
2023-01-17T20:21:06.414Z,13.20
2023-01-17T20:23:36.098Z,15.03
2023-01-17T20:26:04.485Z,12.63
2023-01-17T20:28:33.707Z,12.80
2023-01-17T20:31:07.486Z,14.70
2023-01-17T20:33:37.254Z,13.57
2023-01-17T20:36:10.531Z,15.30
2023-01-17T20:38:49.254Z,17.17
2023-01-17T20:41:19.608Z,22.20
2023-01-17T20:43:49.507Z,25.60
2023-01-17T20:46:18.700Z,23.00
2023-01-17T20:48:49.148Z,23.60
2023-01-17T20:51:18.079Z,27.90
2023-01-17T20:53:47.256Z,44.90
2023-01-17T20:56:17.235Z,44.73
2023-01-17T20:58:45.421Z,42.67
2023-01-17T21:01:20.013Z,35.10
2023-01-17T21:03:52.999Z,32.60
2023-01-17T21:06:22.583Z,27.40
2023-01-17T21:08:50.948Z,22.10
2023-01-17T21:11:22.110Z,24.00
2023-01-17T21:13:51.208Z,21.27
2023-01-17T21:16:21.262Z,21.80
2023-01-17T21:18:51.743Z,20.20
2023-01-17T21:21:22.861Z,22.13
2023-01-17T21:23:52.170Z,21.67
2023-01-17T21:26:21.310Z,21.00
2023-01-17T21:28:50.661Z,21.60
2023-01-17T21:31:22.987Z,28.77
2023-01-17T21:33:54.138Z,33.07
2023-01-17T21:36:24.089Z,33.57
2023-01-17T21:38:54.684Z,31.53
2023-01-17T21:41:24.463Z,33.40
2023-01-17T21:43:55.687Z,31.67
2023-01-17T21:46:23.863Z,31.57
2023-01-17T21:48:53.287Z,30.60
2023-01-17T21:51:21.755Z,30.73
2023-01-17T21:53:49.837Z,28.67
2023-01-17T21:56:35.257Z,29.13
2023-01-17T21:59:03.385Z,28.53
2023-01-17T22:01:34.025Z,28.97
2023-01-17T22:04:04.651Z,27.40
2023-01-17T22:06:35.265Z,26.70
2023-01-17T22:09:04.919Z,27.07
2023-01-17T22:11:32.911Z,27.10
2023-01-17T22:14:02.534Z,26.40
2023-01-17T22:16:30.489Z,26.33
2023-01-17T22:18:59.192Z,28.13
2023-01-17T22:21:30.039Z,24.53
2023-01-17T22:23:59.898Z,26.47
2023-01-17T22:26:30.070Z,26.93
2023-01-17T22:29:02.415Z,26.80
2023-01-17T22:31:30.738Z,25.87
2023-01-17T22:34:00.563Z,25.93
2023-01-17T22:36:30.784Z,27.20
2023-01-17T22:38:58.848Z,25.50
2023-01-17T22:41:29.764Z,24.97
2023-01-17T22:44:02.065Z,26.13
2023-01-17T22:46:31.630Z,25.73
2023-01-17T22:49:00.611Z,26.43
2023-01-17T22:51:30.333Z,24.03
2023-01-17T22:53:59.756Z,26.07
2023-01-17T22:56:30.025Z,24.63
2023-01-17T22:58:59.020Z,24.70
2023-01-17T23:01:28.811Z,22.50
2023-01-17T23:03:58.480Z,22.53
2023-01-17T23:06:28.273Z,22.40
2023-01-17T23:09:00.405Z,23.60
2023-01-17T23:11:43.700Z,22.00
2023-01-17T23:14:17.075Z,23.60
2023-01-17T23:17:04.479Z,21.73
2023-01-17T23:19:35.730Z,20.97
2023-01-17T23:22:16.814Z,20.13
2023-01-17T23:24:48.873Z,20.30
2023-01-17T23:27:37.201Z,19.50
2023-01-17T23:30:08.178Z,18.47
2023-01-17T23:32:36.200Z,18.93
2023-01-17T23:35:04.471Z,20.27
2023-01-17T23:37:50.142Z,19.30
2023-01-17T23:40:20.366Z,16.90
2023-01-17T23:43:06.030Z,18.37
2023-01-17T23:45:35.839Z,17.47
2023-01-17T23:48:05.634Z,18.40
2023-01-17T23:50:34.405Z,17.53
2023-01-17T23:53:06.848Z,17.67
2023-01-17T23:55:38.612Z,16.67
2023-01-17T23:58:07.884Z,16.17
